sensor_id;sensor_type;location;lat;lon;timestamp;P1;durP1;ratioP1;P2;durP2;ratioP2
59434;SDS011;45241;49.768;8.636;2022-08-20T00:01:36;7.28;;;5.38;;
59434;SDS011;45241;49.768;8.636;2022-08-20T00:04:01;8.35;;;5.05;;
59434;SDS011;45241;49.768;8.636;2022-08-20T00:06:26;6.13;;;5.05;;
59434;SDS011;45241;49.768;8.636;2022-08-20T00:08:52;5.68;;;4.82;;
59434;SDS011;45241;49.768;8.636;2022-08-20T00:11:20;6.32;;;5.18;;
59434;SDS011;45241;49.768;8.636;2022-08-20T00:13:49;5.85;;;4.72;;
59434;SDS011;45241;49.768;8.636;2022-08-20T00:16:18;7.28;;;5.00;;
59434;SDS011;45241;49.768;8.636;2022-08-20T00:18:46;5.65;;;4.70;;
59434;SDS011;45241;49.768;8.636;2022-08-20T00:21:13;8.60;;;4.65;;
59434;SDS011;45241;49.768;8.636;2022-08-20T00:23:42;7.45;;;5.30;;
59434;SDS011;45241;49.768;8.636;2022-08-20T00:28:36;5.90;;;5.13;;
59434;SDS011;45241;49.768;8.636;2022-08-20T00:31:06;7.20;;;4.85;;
59434;SDS011;45241;49.768;8.636;2022-08-20T00:33:34;8.25;;;5.43;;
59434;SDS011;45241;49.768;8.636;2022-08-20T00:36:00;6.10;;;4.50;;
59434;SDS011;45241;49.768;8.636;2022-08-20T00:38:31;5.72;;;4.40;;
59434;SDS011;45241;49.768;8.636;2022-08-20T00:40:58;7.03;;;4.60;;
59434;SDS011;45241;49.768;8.636;2022-08-20T00:43:29;5.68;;;4.70;;
59434;SDS011;45241;49.768;8.636;2022-08-20T00:45:58;5.38;;;4.30;;
59434;SDS011;45241;49.768;8.636;2022-08-20T00:48:26;6.80;;;4.85;;
59434;SDS011;45241;49.768;8.636;2022-08-20T00:50:56;5.63;;;4.65;;
59434;SDS011;45241;49.768;8.636;2022-08-20T00:53:26;5.75;;;4.53;;
59434;SDS011;45241;49.768;8.636;2022-08-20T00:55:53;7.10;;;4.53;;
59434;SDS011;45241;49.768;8.636;2022-08-20T00:58:19;5.93;;;4.22;;
59434;SDS011;45241;49.768;8.636;2022-08-20T01:00:45;5.47;;;4.57;;
59434;SDS011;45241;49.768;8.636;2022-08-20T01:03:12;6.03;;;4.40;;
59434;SDS011;45241;49.768;8.636;2022-08-20T01:05:43;5.60;;;4.00;;
59434;SDS011;45241;49.768;8.636;2022-08-20T01:08:11;6.93;;;4.40;;
59434;SDS011;45241;49.768;8.636;2022-08-20T01:10:40;5.15;;;4.32;;
59434;SDS011;45241;49.768;8.636;2022-08-20T01:13:10;5.20;;;4.10;;
59434;SDS011;45241;49.768;8.636;2022-08-20T01:15:40;6.15;;;4.43;;
59434;SDS011;45241;49.768;8.636;2022-08-20T01:18:09;6.10;;;4.35;;
59434;SDS011;45241;49.768;8.636;2022-08-20T01:20:42;7.25;;;4.55;;
59434;SDS011;45241;49.768;8.636;2022-08-20T01:23:27;6.35;;;4.65;;
59434;SDS011;45241;49.768;8.636;2022-08-20T01:28:55;6.00;;;4.00;;
59434;SDS011;45241;49.768;8.636;2022-08-20T01:31:26;5.20;;;4.20;;
59434;SDS011;45241;49.768;8.636;2022-08-20T01:33:54;5.18;;;4.15;;
59434;SDS011;45241;49.768;8.636;2022-08-20T01:36:22;4.68;;;3.58;;
59434;SDS011;45241;49.768;8.636;2022-08-20T01:38:51;6.00;;;4.30;;
59434;SDS011;45241;49.768;8.636;2022-08-20T01:43:45;5.38;;;4.20;;
59434;SDS011;45241;49.768;8.636;2022-08-20T01:46:13;6.15;;;4.03;;
59434;SDS011;45241;49.768;8.636;2022-08-20T01:48:40;5.80;;;3.72;;
59434;SDS011;45241;49.768;8.636;2022-08-20T01:51:16;3.72;;;3.35;;
59434;SDS011;45241;49.768;8.636;2022-08-20T01:53:47;4.05;;;3.65;;
59434;SDS011;45241;49.768;8.636;2022-08-20T01:56:17;5.40;;;3.50;;
59434;SDS011;45241;49.768;8.636;2022-08-20T01:58:48;4.95;;;3.88;;
59434;SDS011;45241;49.768;8.636;2022-08-20T02:01:20;6.30;;;3.90;;
59434;SDS011;45241;49.768;8.636;2022-08-20T02:03:48;4.85;;;3.80;;
59434;SDS011;45241;49.768;8.636;2022-08-20T02:06:14;4.53;;;3.58;;
59434;SDS011;45241;49.768;8.636;2022-08-20T02:08:40;4.78;;;3.58;;
59434;SDS011;45241;49.768;8.636;2022-08-20T02:11:06;4.05;;;3.40;;
59434;SDS011;45241;49.768;8.636;2022-08-20T02:13:32;4.50;;;3.80;;
59434;SDS011;45241;49.768;8.636;2022-08-20T02:15:58;4.55;;;3.40;;
59434;SDS011;45241;49.768;8.636;2022-08-20T02:18:23;4.43;;;3.70;;
59434;SDS011;45241;49.768;8.636;2022-08-20T02:20:49;4.57;;;3.20;;
59434;SDS011;45241;49.768;8.636;2022-08-20T02:23:16;4.15;;;3.60;;
59434;SDS011;45241;49.768;8.636;2022-08-20T02:25:42;4.55;;;3.47;;
59434;SDS011;45241;49.768;8.636;2022-08-20T02:28:12;4.20;;;3.53;;
59434;SDS011;45241;49.768;8.636;2022-08-20T02:30:40;5.00;;;3.20;;
59434;SDS011;45241;49.768;8.636;2022-08-20T02:33:09;5.78;;;3.30;;
59434;SDS011;45241;49.768;8.636;2022-08-20T02:35:37;5.20;;;2.90;;
59434;SDS011;45241;49.768;8.636;2022-08-20T02:38:04;4.35;;;3.30;;
59434;SDS011;45241;49.768;8.636;2022-08-20T02:40:29;3.97;;;3.28;;
59434;SDS011;45241;49.768;8.636;2022-08-20T02:42:56;5.22;;;3.47;;
59434;SDS011;45241;49.768;8.636;2022-08-20T02:45:22;5.80;;;3.63;;
59434;SDS011;45241;49.768;8.636;2022-08-20T02:47:48;5.57;;;3.40;;
59434;SDS011;45241;49.768;8.636;2022-08-20T02:50:17;6.38;;;3.42;;
59434;SDS011;45241;49.768;8.636;2022-08-20T02:52:44;3.83;;;3.42;;
59434;SDS011;45241;49.768;8.636;2022-08-20T02:55:10;5.55;;;3.40;;
59434;SDS011;45241;49.768;8.636;2022-08-20T02:57:37;3.92;;;3.10;;
59434;SDS011;45241;49.768;8.636;2022-08-20T03:00:21;4.40;;;3.22;;
59434;SDS011;45241;49.768;8.636;2022-08-20T03:02:47;4.63;;;2.90;;
59434;SDS011;45241;49.768;8.636;2022-08-20T03:05:13;4.45;;;3.03;;
59434;SDS011;45241;49.768;8.636;2022-08-20T03:07:39;4.40;;;2.90;;
59434;SDS011;45241;49.768;8.636;2022-08-20T03:10:06;5.18;;;2.72;;
59434;SDS011;45241;49.768;8.636;2022-08-20T03:12:33;4.15;;;3.53;;
59434;SDS011;45241;49.768;8.636;2022-08-20T03:14:58;4.22;;;2.97;;
59434;SDS011;45241;49.768;8.636;2022-08-20T03:17:23;4.60;;;3.00;;
59434;SDS011;45241;49.768;8.636;2022-08-20T03:19:49;6.40;;;3.40;;
59434;SDS011;45241;49.768;8.636;2022-08-20T03:22:14;3.30;;;3.00;;
59434;SDS011;45241;49.768;8.636;2022-08-20T03:24:40;5.43;;;3.13;;
59434;SDS011;45241;49.768;8.636;2022-08-20T03:27:05;4.35;;;3.30;;
59434;SDS011;45241;49.768;8.636;2022-08-20T03:29:31;4.90;;;3.00;;
59434;SDS011;45241;49.768;8.636;2022-08-20T03:31:56;4.05;;;2.95;;
59434;SDS011;45241;49.768;8.636;2022-08-20T03:34:21;3.97;;;2.92;;
59434;SDS011;45241;49.768;8.636;2022-08-20T03:36:47;4.75;;;3.05;;
59434;SDS011;45241;49.768;8.636;2022-08-20T03:39:12;4.22;;;3.00;;
59434;SDS011;45241;49.768;8.636;2022-08-20T03:41:37;3.85;;;2.95;;
59434;SDS011;45241;49.768;8.636;2022-08-20T03:44:03;5.00;;;3.20;;
59434;SDS011;45241;49.768;8.636;2022-08-20T03:46:29;3.58;;;3.00;;
59434;SDS011;45241;49.768;8.636;2022-08-20T03:48:55;4.07;;;3.15;;
59434;SDS011;45241;49.768;8.636;2022-08-20T03:51:20;3.53;;;3.22;;
59434;SDS011;45241;49.768;8.636;2022-08-20T03:53:45;3.55;;;3.03;;
59434;SDS011;45241;49.768;8.636;2022-08-20T03:56:11;3.13;;;2.58;;
59434;SDS011;45241;49.768;8.636;2022-08-20T03:58:36;4.50;;;3.03;;
59434;SDS011;45241;49.768;8.636;2022-08-20T04:01:02;5.13;;;3.13;;
59434;SDS011;45241;49.768;8.636;2022-08-20T04:03:30;4.22;;;2.97;;
59434;SDS011;45241;49.768;8.636;2022-08-20T04:05:56;4.68;;;3.38;;
59434;SDS011;45241;49.768;8.636;2022-08-20T04:08:23;4.35;;;3.35;;
59434;SDS011;45241;49.768;8.636;2022-08-20T04:10:51;4.22;;;2.90;;
59434;SDS011;45241;49.768;8.636;2022-08-20T04:13:21;3.83;;;2.97;;
59434;SDS011;45241;49.768;8.636;2022-08-20T04:15:47;3.65;;;3.30;;
59434;SDS011;45241;49.768;8.636;2022-08-20T04:18:13;5.38;;;3.53;;
59434;SDS011;45241;49.768;8.636;2022-08-20T04:20:44;4.97;;;3.05;;
59434;SDS011;45241;49.768;8.636;2022-08-20T04:23:11;6.10;;;3.38;;
59434;SDS011;45241;49.768;8.636;2022-08-20T04:25:38;3.88;;;3.45;;
59434;SDS011;45241;49.768;8.636;2022-08-20T04:28:05;4.78;;;3.40;;
59434;SDS011;45241;49.768;8.636;2022-08-20T04:30:32;4.47;;;3.58;;
59434;SDS011;45241;49.768;8.636;2022-08-20T04:32:59;5.18;;;3.40;;
59434;SDS011;45241;49.768;8.636;2022-08-20T04:35:25;4.40;;;3.50;;
59434;SDS011;45241;49.768;8.636;2022-08-20T04:38:01;4.45;;;3.50;;
59434;SDS011;45241;49.768;8.636;2022-08-20T04:40:31;6.57;;;3.50;;
59434;SDS011;45241;49.768;8.636;2022-08-20T04:43:16;4.35;;;3.50;;
59434;SDS011;45241;49.768;8.636;2022-08-20T04:45:43;4.88;;;3.63;;
59434;SDS011;45241;49.768;8.636;2022-08-20T04:48:09;5.43;;;4.13;;
59434;SDS011;45241;49.768;8.636;2022-08-20T04:50:35;5.97;;;3.85;;
59434;SDS011;45241;49.768;8.636;2022-08-20T04:53:05;5.35;;;3.40;;
59434;SDS011;45241;49.768;8.636;2022-08-20T04:55:34;4.45;;;3.67;;
59434;SDS011;45241;49.768;8.636;2022-08-20T04:58:06;6.78;;;3.80;;
59434;SDS011;45241;49.768;8.636;2022-08-20T05:00:36;5.63;;;3.90;;
59434;SDS011;45241;49.768;8.636;2022-08-20T05:03:02;3.67;;;3.35;;
59434;SDS011;45241;49.768;8.636;2022-08-20T05:05:28;4.72;;;3.17;;
59434;SDS011;45241;49.768;8.636;2022-08-20T05:07:54;4.78;;;3.53;;
59434;SDS011;45241;49.768;8.636;2022-08-20T05:10:22;4.65;;;3.80;;
59434;SDS011;45241;49.768;8.636;2022-08-20T05:12:47;4.75;;;3.28;;
59434;SDS011;45241;49.768;8.636;2022-08-20T05:15:13;4.03;;;3.22;;
59434;SDS011;45241;49.768;8.636;2022-08-20T05:17:39;3.85;;;3.20;;
59434;SDS011;45241;49.768;8.636;2022-08-20T05:20:06;3.67;;;2.95;;
59434;SDS011;45241;49.768;8.636;2022-08-20T05:22:33;3.90;;;3.30;;
59434;SDS011;45241;49.768;8.636;2022-08-20T05:24:59;5.60;;;2.80;;
59434;SDS011;45241;49.768;8.636;2022-08-20T05:27:25;5.47;;;3.15;;
59434;SDS011;45241;49.768;8.636;2022-08-20T05:29:52;4.80;;;2.92;;
59434;SDS011;45241;49.768;8.636;2022-08-20T05:32:19;5.03;;;3.95;;
59434;SDS011;45241;49.768;8.636;2022-08-20T05:34:45;3.90;;;2.88;;
59434;SDS011;45241;49.768;8.636;2022-08-20T05:37:10;5.25;;;2.85;;
59434;SDS011;45241;49.768;8.636;2022-08-20T05:39:35;2.75;;;2.40;;
59434;SDS011;45241;49.768;8.636;2022-08-20T05:42:01;4.85;;;2.90;;
59434;SDS011;45241;49.768;8.636;2022-08-20T05:44:26;3.92;;;2.47;;
59434;SDS011;45241;49.768;8.636;2022-08-20T05:46:52;3.17;;;2.58;;
59434;SDS011;45241;49.768;8.636;2022-08-20T05:49:18;5.35;;;2.70;;
59434;SDS011;45241;49.768;8.636;2022-08-20T05:51:45;4.65;;;2.70;;
59434;SDS011;45241;49.768;8.636;2022-08-20T05:54:11;3.58;;;2.75;;
59434;SDS011;45241;49.768;8.636;2022-08-20T05:56:37;2.90;;;2.35;;
59434;SDS011;45241;49.768;8.636;2022-08-20T05:59:03;5.63;;;2.65;;
59434;SDS011;45241;49.768;8.636;2022-08-20T06:01:31;4.05;;;2.40;;
59434;SDS011;45241;49.768;8.636;2022-08-20T06:03:58;3.58;;;2.40;;
59434;SDS011;45241;49.768;8.636;2022-08-20T06:06:42;4.00;;;2.15;;
59434;SDS011;45241;49.768;8.636;2022-08-20T06:09:08;3.58;;;2.55;;
59434;SDS011;45241;49.768;8.636;2022-08-20T06:11:33;2.65;;;2.22;;
59434;SDS011;45241;49.768;8.636;2022-08-20T06:13:59;3.95;;;2.40;;
59434;SDS011;45241;49.768;8.636;2022-08-20T06:16:24;3.30;;;2.25;;
59434;SDS011;45241;49.768;8.636;2022-08-20T06:18:50;4.95;;;2.22;;
59434;SDS011;45241;49.768;8.636;2022-08-20T06:21:15;2.78;;;2.13;;
59434;SDS011;45241;49.768;8.636;2022-08-20T06:23:41;3.55;;;2.10;;
59434;SDS011;45241;49.768;8.636;2022-08-20T06:26:06;2.00;;;1.80;;
59434;SDS011;45241;49.768;8.636;2022-08-20T06:28:33;2.58;;;1.90;;
59434;SDS011;45241;49.768;8.636;2022-08-20T06:31:00;2.25;;;2.00;;
59434;SDS011;45241;49.768;8.636;2022-08-20T06:33:25;2.50;;;1.80;;
59434;SDS011;45241;49.768;8.636;2022-08-20T06:35:50;2.92;;;1.70;;
59434;SDS011;45241;49.768;8.636;2022-08-20T06:38:16;3.53;;;1.70;;
59434;SDS011;45241;49.768;8.636;2022-08-20T06:40:41;2.22;;;1.95;;
59434;SDS011;45241;49.768;8.636;2022-08-20T06:43:06;2.75;;;1.80;;
59434;SDS011;45241;49.768;8.636;2022-08-20T06:45:33;2.67;;;1.95;;
59434;SDS011;45241;49.768;8.636;2022-08-20T06:48:00;2.67;;;1.77;;
59434;SDS011;45241;49.768;8.636;2022-08-20T06:50:31;2.65;;;1.67;;
59434;SDS011;45241;49.768;8.636;2022-08-20T06:53:03;2.15;;;1.88;;
59434;SDS011;45241;49.768;8.636;2022-08-20T06:55:37;1.77;;;1.67;;
59434;SDS011;45241;49.768;8.636;2022-08-20T06:58:07;1.60;;;1.42;;
59434;SDS011;45241;49.768;8.636;2022-08-20T07:00:35;2.93;;;2.00;;
59434;SDS011;45241;49.768;8.636;2022-08-20T07:03:01;3.65;;;2.10;;
59434;SDS011;45241;49.768;8.636;2022-08-20T07:05:29;2.15;;;1.95;;
59434;SDS011;45241;49.768;8.636;2022-08-20T07:07:55;2.17;;;1.60;;
59434;SDS011;45241;49.768;8.636;2022-08-20T07:10:22;1.80;;;1.60;;
59434;SDS011;45241;49.768;8.636;2022-08-20T07:12:49;3.08;;;1.50;;
59434;SDS011;45241;49.768;8.636;2022-08-20T07:15:16;2.25;;;1.65;;
59434;SDS011;45241;49.768;8.636;2022-08-20T07:17:47;2.20;;;1.80;;
59434;SDS011;45241;49.768;8.636;2022-08-20T07:20:15;10.48;;;7.22;;
59434;SDS011;45241;49.768;8.636;2022-08-20T07:22:41;2.40;;;1.75;;
59434;SDS011;45241;49.768;8.636;2022-08-20T07:25:08;2.30;;;1.73;;
59434;SDS011;45241;49.768;8.636;2022-08-20T07:27:36;2.30;;;1.95;;
59434;SDS011;45241;49.768;8.636;2022-08-20T07:30:03;2.95;;;2.50;;
59434;SDS011;45241;49.768;8.636;2022-08-20T07:32:47;2.38;;;2.17;;
59434;SDS011;45241;49.768;8.636;2022-08-20T07:35:13;2.53;;;2.22;;
59434;SDS011;45241;49.768;8.636;2022-08-20T07:37:41;2.58;;;2.22;;
59434;SDS011;45241;49.768;8.636;2022-08-20T07:40:10;2.37;;;2.17;;
59434;SDS011;45241;49.768;8.636;2022-08-20T07:42:44;2.40;;;2.20;;
59434;SDS011;45241;49.768;8.636;2022-08-20T07:45:10;3.55;;;2.33;;
59434;SDS011;45241;49.768;8.636;2022-08-20T07:47:38;2.42;;;2.22;;
59434;SDS011;45241;49.768;8.636;2022-08-20T07:50:05;3.05;;;2.47;;
59434;SDS011;45241;49.768;8.636;2022-08-20T07:52:31;2.72;;;2.53;;
59434;SDS011;45241;49.768;8.636;2022-08-20T07:54:59;4.18;;;2.75;;
59434;SDS011;45241;49.768;8.636;2022-08-20T07:57:26;3.72;;;2.65;;
59434;SDS011;45241;49.768;8.636;2022-08-20T07:59:51;2.38;;;2.10;;
59434;SDS011;45241;49.768;8.636;2022-08-20T08:02:16;2.53;;;2.33;;
59434;SDS011;45241;49.768;8.636;2022-08-20T08:04:42;3.00;;;2.45;;
59434;SDS011;45241;49.768;8.636;2022-08-20T08:07:07;2.50;;;2.30;;
59434;SDS011;45241;49.768;8.636;2022-08-20T08:09:33;2.30;;;1.95;;
59434;SDS011;45241;49.768;8.636;2022-08-20T08:11:59;3.60;;;2.33;;
59434;SDS011;45241;49.768;8.636;2022-08-20T08:14:27;2.95;;;2.33;;
59434;SDS011;45241;49.768;8.636;2022-08-20T08:16:56;3.00;;;2.40;;
59434;SDS011;45241;49.768;8.636;2022-08-20T08:19:24;2.03;;;1.83;;
59434;SDS011;45241;49.768;8.636;2022-08-20T08:21:52;1.92;;;1.77;;
59434;SDS011;45241;49.768;8.636;2022-08-20T08:24:19;1.58;;;1.48;;
59434;SDS011;45241;49.768;8.636;2022-08-20T08:26:44;1.60;;;1.50;;
59434;SDS011;45241;49.768;8.636;2022-08-20T08:29:10;1.70;;;1.60;;
59434;SDS011;45241;49.768;8.636;2022-08-20T08:31:36;1.05;;;0.95;;
59434;SDS011;45241;49.768;8.636;2022-08-20T08:34:01;0.93;;;0.93;;
59434;SDS011;45241;49.768;8.636;2022-08-20T08:36:27;0.93;;;0.88;;
59434;SDS011;45241;49.768;8.636;2022-08-20T08:38:52;1.45;;;1.20;;
59434;SDS011;45241;49.768;8.636;2022-08-20T08:41:29;1.38;;;0.90;;
59434;SDS011;45241;49.768;8.636;2022-08-20T08:44:06;1.40;;;1.30;;
59434;SDS011;45241;49.768;8.636;2022-08-20T08:46:38;1.60;;;1.50;;
59434;SDS011;45241;49.768;8.636;2022-08-20T08:49:06;3.13;;;1.60;;
59434;SDS011;45241;49.768;8.636;2022-08-20T08:51:43;2.40;;;1.85;;
59434;SDS011;45241;49.768;8.636;2022-08-20T08:54:16;3.55;;;2.10;;
59434;SDS011;45241;49.768;8.636;2022-08-20T08:56:44;3.40;;;2.15;;
59434;SDS011;45241;49.768;8.636;2022-08-20T08:59:10;2.00;;;1.80;;
59434;SDS011;45241;49.768;8.636;2022-08-20T09:01:44;1.80;;;1.70;;
59434;SDS011;45241;49.768;8.636;2022-08-20T09:04:17;3.38;;;1.95;;
59434;SDS011;45241;49.768;8.636;2022-08-20T09:06:46;2.75;;;2.35;;
59434;SDS011;45241;49.768;8.636;2022-08-20T09:09:31;3.65;;;2.15;;
59434;SDS011;45241;49.768;8.636;2022-08-20T09:12:05;3.15;;;2.53;;
59434;SDS011;45241;49.768;8.636;2022-08-20T09:14:32;3.03;;;2.58;;
59434;SDS011;45241;49.768;8.636;2022-08-20T09:16:58;2.25;;;1.90;;
59434;SDS011;45241;49.768;8.636;2022-08-20T09:19:23;2.97;;;1.70;;
59434;SDS011;45241;49.768;8.636;2022-08-20T09:21:48;1.83;;;1.70;;
59434;SDS011;45241;49.768;8.636;2022-08-20T09:24:14;2.72;;;2.30;;
59434;SDS011;45241;49.768;8.636;2022-08-20T09:26:39;2.28;;;1.73;;
59434;SDS011;45241;49.768;8.636;2022-08-20T09:29:04;3.80;;;2.70;;
59434;SDS011;45241;49.768;8.636;2022-08-20T09:31:30;2.58;;;1.80;;
59434;SDS011;45241;49.768;8.636;2022-08-20T09:33:55;2.60;;;2.13;;
59434;SDS011;45241;49.768;8.636;2022-08-20T09:36:21;3.50;;;2.35;;
59434;SDS011;45241;49.768;8.636;2022-08-20T09:38:46;3.60;;;1.80;;
59434;SDS011;45241;49.768;8.636;2022-08-20T09:41:11;2.17;;;1.60;;
59434;SDS011;45241;49.768;8.636;2022-08-20T09:43:36;1.83;;;1.70;;
59434;SDS011;45241;49.768;8.636;2022-08-20T09:46:02;1.70;;;1.60;;
59434;SDS011;45241;49.768;8.636;2022-08-20T09:48:27;2.25;;;1.60;;
59434;SDS011;45241;49.768;8.636;2022-08-20T09:50:52;1.83;;;1.50;;
59434;SDS011;45241;49.768;8.636;2022-08-20T09:53:24;1.95;;;1.67;;
59434;SDS011;45241;49.768;8.636;2022-08-20T09:55:50;1.70;;;1.52;;
59434;SDS011;45241;49.768;8.636;2022-08-20T09:58:18;1.95;;;1.70;;
59434;SDS011;45241;49.768;8.636;2022-08-20T10:00:57;1.60;;;1.50;;
59434;SDS011;45241;49.768;8.636;2022-08-20T10:03:25;2.87;;;1.60;;
59434;SDS011;45241;49.768;8.636;2022-08-20T10:05:50;1.65;;;1.55;;
59434;SDS011;45241;49.768;8.636;2022-08-20T10:08:15;1.88;;;1.60;;
59434;SDS011;45241;49.768;8.636;2022-08-20T10:10:41;1.67;;;1.58;;
59434;SDS011;45241;49.768;8.636;2022-08-20T10:13:06;2.10;;;1.50;;
59434;SDS011;45241;49.768;8.636;2022-08-20T10:15:32;1.73;;;1.58;;
59434;SDS011;45241;49.768;8.636;2022-08-20T10:17:57;2.15;;;1.30;;
59434;SDS011;45241;49.768;8.636;2022-08-20T10:20:29;2.67;;;1.50;;
59434;SDS011;45241;49.768;8.636;2022-08-20T10:22:54;1.50;;;1.40;;
59434;SDS011;45241;49.768;8.636;2022-08-20T10:25:20;1.55;;;1.20;;
59434;SDS011;45241;49.768;8.636;2022-08-20T10:27:45;1.45;;;1.30;;
59434;SDS011;45241;49.768;8.636;2022-08-20T10:30:11;1.73;;;1.20;;
59434;SDS011;45241;49.768;8.636;2022-08-20T10:32:36;1.13;;;1.02;;
59434;SDS011;45241;49.768;8.636;2022-08-20T10:35:01;2.75;;;1.42;;
59434;SDS011;45241;49.768;8.636;2022-08-20T10:37:27;2.03;;;1.10;;
59434;SDS011;45241;49.768;8.636;2022-08-20T10:39:54;1.85;;;1.20;;
59434;SDS011;45241;49.768;8.636;2022-08-20T10:42:19;1.30;;;1.10;;
59434;SDS011;45241;49.768;8.636;2022-08-20T10:44:45;1.15;;;1.05;;
59434;SDS011;45241;49.768;8.636;2022-08-20T10:49:42;2.58;;;1.30;;
59434;SDS011;45241;49.768;8.636;2022-08-20T10:52:08;1.67;;;1.20;;
59434;SDS011;45241;49.768;8.636;2022-08-20T10:54:33;1.73;;;0.90;;
59434;SDS011;45241;49.768;8.636;2022-08-20T10:57:02;0.80;;;0.80;;
59434;SDS011;45241;49.768;8.636;2022-08-20T10:59:28;0.85;;;0.85;;
59434;SDS011;45241;49.768;8.636;2022-08-20T11:01:53;0.80;;;0.80;;
59434;SDS011;45241;49.768;8.636;2022-08-20T11:04:19;1.30;;;0.90;;
59434;SDS011;45241;49.768;8.636;2022-08-20T11:06:44;1.55;;;1.10;;
59434;SDS011;45241;49.768;8.636;2022-08-20T11:09:09;1.10;;;1.00;;
59434;SDS011;45241;49.768;8.636;2022-08-20T11:11:35;0.80;;;0.80;;
59434;SDS011;45241;49.768;8.636;2022-08-20T11:14:00;0.80;;;0.80;;
59434;SDS011;45241;49.768;8.636;2022-08-20T11:16:25;1.38;;;0.60;;
59434;SDS011;45241;49.768;8.636;2022-08-20T11:18:51;0.50;;;0.50;;
59434;SDS011;45241;49.768;8.636;2022-08-20T11:21:16;1.40;;;0.60;;
59434;SDS011;45241;49.768;8.636;2022-08-20T11:23:41;0.43;;;0.40;;
59434;SDS011;45241;49.768;8.636;2022-08-20T11:26:07;0.50;;;0.40;;
59434;SDS011;45241;49.768;8.636;2022-08-20T11:28:32;0.60;;;0.50;;
59434;SDS011;45241;49.768;8.636;2022-08-20T11:30:59;0.30;;;0.30;;
59434;SDS011;45241;49.768;8.636;2022-08-20T11:33:25;0.35;;;0.35;;
59434;SDS011;45241;49.768;8.636;2022-08-20T11:35:50;0.30;;;0.28;;
59434;SDS011;45241;49.768;8.636;2022-08-20T11:38:17;0.38;;;0.20;;
59434;SDS011;45241;49.768;8.636;2022-08-20T11:40:43;1.50;;;0.20;;
59434;SDS011;45241;49.768;8.636;2022-08-20T11:43:08;0.75;;;0.30;;
59434;SDS011;45241;49.768;8.636;2022-08-20T11:45:33;0.25;;;0.20;;
59434;SDS011;45241;49.768;8.636;2022-08-20T11:47:59;0.20;;;0.20;;
59434;SDS011;45241;49.768;8.636;2022-08-20T11:50:24;0.38;;;0.38;;
59434;SDS011;45241;49.768;8.636;2022-08-20T11:52:49;2.75;;;0.20;;
59434;SDS011;45241;49.768;8.636;2022-08-20T11:55:15;0.20;;;0.20;;
59434;SDS011;45241;49.768;8.636;2022-08-20T11:57:42;0.30;;;0.30;;
59434;SDS011;45241;49.768;8.636;2022-08-20T12:00:12;0.20;;;0.20;;
59434;SDS011;45241;49.768;8.636;2022-08-20T12:02:40;0.38;;;0.28;;
59434;SDS011;45241;49.768;8.636;2022-08-20T12:05:06;0.47;;;0.20;;
59434;SDS011;45241;49.768;8.636;2022-08-20T12:07:32;1.65;;;0.17;;
59434;SDS011;45241;49.768;8.636;2022-08-20T12:09:58;0.35;;;0.20;;
59434;SDS011;45241;49.768;8.636;2022-08-20T12:12:23;0.22;;;0.20;;
59434;SDS011;45241;49.768;8.636;2022-08-20T12:14:49;0.10;;;0.10;;
59434;SDS011;45241;49.768;8.636;2022-08-20T12:17:18;0.85;;;0.30;;
59434;SDS011;45241;49.768;8.636;2022-08-20T12:19:47;0.75;;;0.20;;
59434;SDS011;45241;49.768;8.636;2022-08-20T12:22:13;0.20;;;0.20;;
59434;SDS011;45241;49.768;8.636;2022-08-20T12:24:38;0.28;;;0.20;;
59434;SDS011;45241;49.768;8.636;2022-08-20T12:27:17;0.40;;;0.25;;
59434;SDS011;45241;49.768;8.636;2022-08-20T12:29:46;0.30;;;0.20;;
59434;SDS011;45241;49.768;8.636;2022-08-20T12:32:12;0.30;;;0.20;;
59434;SDS011;45241;49.768;8.636;2022-08-20T12:34:39;0.20;;;0.20;;
59434;SDS011;45241;49.768;8.636;2022-08-20T12:37:07;0.30;;;0.30;;
59434;SDS011;45241;49.768;8.636;2022-08-20T12:39:36;0.75;;;0.17;;
59434;SDS011;45241;49.768;8.636;2022-08-20T12:42:03;0.10;;;0.10;;
59434;SDS011;45241;49.768;8.636;2022-08-20T12:44:29;0.50;;;0.20;;
59434;SDS011;45241;49.768;8.636;2022-08-20T12:49:40;0.55;;;0.30;;
59434;SDS011;45241;49.768;8.636;2022-08-20T12:52:09;0.20;;;0.20;;
59434;SDS011;45241;49.768;8.636;2022-08-20T12:54:36;0.40;;;0.20;;
59434;SDS011;45241;49.768;8.636;2022-08-20T12:57:02;0.22;;;0.20;;
59434;SDS011;45241;49.768;8.636;2022-08-20T12:59:27;0.20;;;0.20;;
59434;SDS011;45241;49.768;8.636;2022-08-20T13:01:53;0.52;;;0.20;;
59434;SDS011;45241;49.768;8.636;2022-08-20T13:04:19;0.30;;;0.30;;
59434;SDS011;45241;49.768;8.636;2022-08-20T13:06:44;0.32;;;0.30;;
59434;SDS011;45241;49.768;8.636;2022-08-20T13:09:10;1.00;;;0.30;;
59434;SDS011;45241;49.768;8.636;2022-08-20T13:11:37;0.30;;;0.20;;
59434;SDS011;45241;49.768;8.636;2022-08-20T13:14:02;0.15;;;0.10;;
59434;SDS011;45241;49.768;8.636;2022-08-20T13:16:27;0.57;;;0.30;;
59434;SDS011;45241;49.768;8.636;2022-08-20T13:18:53;0.30;;;0.30;;
59434;SDS011;45241;49.768;8.636;2022-08-20T13:21:18;0.30;;;0.30;;
59434;SDS011;45241;49.768;8.636;2022-08-20T13:23:43;0.50;;;0.25;;
59434;SDS011;45241;49.768;8.636;2022-08-20T13:26:08;2.17;;;0.35;;
59434;SDS011;45241;49.768;8.636;2022-08-20T13:28:34;0.35;;;0.20;;
59434;SDS011;45241;49.768;8.636;2022-08-20T13:30:59;0.98;;;0.30;;
59434;SDS011;45241;49.768;8.636;2022-08-20T13:33:26;1.42;;;0.30;;
59434;SDS011;45241;49.768;8.636;2022-08-20T13:35:52;0.32;;;0.30;;
59434;SDS011;45241;49.768;8.636;2022-08-20T13:38:17;1.23;;;0.30;;
59434;SDS011;45241;49.768;8.636;2022-08-20T13:40:42;2.30;;;0.40;;
59434;SDS011;45241;49.768;8.636;2022-08-20T13:43:08;0.30;;;0.30;;
59434;SDS011;45241;49.768;8.636;2022-08-20T13:45:34;1.10;;;0.20;;
59434;SDS011;45241;49.768;8.636;2022-08-20T13:48:00;0.40;;;0.40;;
59434;SDS011;45241;49.768;8.636;2022-08-20T13:50:26;0.30;;;0.30;;
59434;SDS011;45241;49.768;8.636;2022-08-20T13:52:51;0.65;;;0.40;;
59434;SDS011;45241;49.768;8.636;2022-08-20T13:55:18;0.98;;;0.40;;
59434;SDS011;45241;49.768;8.636;2022-08-20T13:57:45;0.40;;;0.40;;
59434;SDS011;45241;49.768;8.636;2022-08-20T14:00:13;2.45;;;0.60;;
59434;SDS011;45241;49.768;8.636;2022-08-20T14:02:40;0.70;;;0.40;;
59434;SDS011;45241;49.768;8.636;2022-08-20T14:05:07;0.90;;;0.40;;
59434;SDS011;45241;49.768;8.636;2022-08-20T14:07:33;0.50;;;0.50;;
59434;SDS011;45241;49.768;8.636;2022-08-20T14:10:00;0.40;;;0.40;;
59434;SDS011;45241;49.768;8.636;2022-08-20T14:12:29;0.30;;;0.20;;
59434;SDS011;45241;49.768;8.636;2022-08-20T14:14:55;0.40;;;0.40;;
59434;SDS011;45241;49.768;8.636;2022-08-20T14:17:24;0.50;;;0.50;;
59434;SDS011;45241;49.768;8.636;2022-08-20T14:19:52;0.95;;;0.63;;
59434;SDS011;45241;49.768;8.636;2022-08-20T14:22:21;1.83;;;0.63;;
59434;SDS011;45241;49.768;8.636;2022-08-20T14:24:47;1.95;;;0.80;;
59434;SDS011;45241;49.768;8.636;2022-08-20T14:27:13;1.08;;;0.60;;
59434;SDS011;45241;49.768;8.636;2022-08-20T14:29:41;3.92;;;0.60;;
59434;SDS011;45241;49.768;8.636;2022-08-20T14:32:09;2.10;;;1.27;;
59434;SDS011;45241;49.768;8.636;2022-08-20T14:34:35;1.85;;;0.80;;
59434;SDS011;45241;49.768;8.636;2022-08-20T14:37:36;0.85;;;0.70;;
59434;SDS011;45241;49.768;8.636;2022-08-20T14:39:58;1.95;;;0.80;;
59434;SDS011;45241;49.768;8.636;2022-08-20T14:42:26;1.02;;;0.90;;
59434;SDS011;45241;49.768;8.636;2022-08-20T14:44:55;1.90;;;1.00;;
59434;SDS011;45241;49.768;8.636;2022-08-20T14:47:23;1.30;;;1.10;;
59434;SDS011;45241;49.768;8.636;2022-08-20T14:49:51;1.50;;;1.00;;
59434;SDS011;45241;49.768;8.636;2022-08-20T14:52:19;1.70;;;1.10;;
59434;SDS011;45241;49.768;8.636;2022-08-20T14:54:45;2.15;;;1.25;;
59434;SDS011;45241;49.768;8.636;2022-08-20T14:57:12;4.70;;;1.13;;
59434;SDS011;45241;49.768;8.636;2022-08-20T14:59:38;1.42;;;1.08;;
59434;SDS011;45241;49.768;8.636;2022-08-20T15:02:04;2.10;;;1.10;;